M I D A S
Marine Information and Data Acquisition System
Tripno 231 of the Zeeleeuw from 2002-03-28 06:57:56 to 2002-03-28 13:16:46
Back to CruiseResearch ActivitiesStationsMapUnderway DataData graphs

EquipmentUnitsComment
TimeDGPSUTC
LatitudeDGPSDM.mWGS84
LongitudeDGPSDM.mWGS84
HeadingGyrodeg 
SOGDGPSknotsSpeed over ground
COGDGPSdegCourse over ground
DepthEcho soundermeters200 kHz
Missing or incorrect values are displayed as -999
Navigation data collected by the RV Zeeleeuw from 2002-03-28 06:57:56 to 2002-03-28 13:16:46
Time Latitude Longitude Heading SOG COG Depth
2002-03-28 07:00:09 51°13.687 2°55.906 0.2   238.8 -999
2002-03-28 07:01:09 51°13.688 2°55.907 0.2   3.1 -999
2002-03-28 07:02:10 51°13.689 2°55.906 129.3   2.4 -999
2002-03-28 07:03:10 51°13.688 2°55.906 129.5   324.4 -999
2002-03-28 07:04:08 51°13.688 2°55.906 129.5   13.5 6.7
2002-03-28 07:05:05 51°13.688 2°55.906 129.5   189.9 6.7
2002-03-28 07:06:05 51°13.688 2°55.906 129.5   351.5 6.7
2002-03-28 07:07:05 51°13.689 2°55.907 129.5   41.9 6.8
2002-03-28 07:08:05 51°13.689 2°55.906 129.5   303.9 6.8
2002-03-28 07:09:05 51°13.689 2°55.906 129.5   17.9 6.7
2002-03-28 07:10:05 51°13.689 2°55.906 129.3   38.1 6.8
2002-03-28 07:11:05 51°13.688 2°55.905 129.3   32.8 6.8
2002-03-28 07:12:05 51°13.69 2°55.906 129.3   56.7 6.8
2002-03-28 07:13:05 51°13.69 2°55.907 129.3   341.9 6.8
2002-03-28 07:14:05 51°13.691 2°55.907 129.3   296.2 6.7
2002-03-28 07:15:05 51°13.689 2°55.906 129.3   290.4 6.8
2002-03-28 07:16:05 51°13.688 2°55.905 129.3   11.2 6.9
2002-03-28 07:17:05 51°13.689 2°55.905 129.3   46.8 6.9
2002-03-28 07:18:05 51°13.689 2°55.906 129.3   59.7 6.9
2002-03-28 07:19:05 51°13.69 2°55.906 129.3   352.4 6.7
2002-03-28 07:20:05 51°13.69 2°55.906 129.3   29.5 6.9
2002-03-28 07:21:05 51°13.69 2°55.907 129.3   0.2 6.9
2002-03-28 07:22:05 51°13.691 2°55.907 129.3   87.7 7
2002-03-28 07:23:05 51°13.691 2°55.907 129.3   307.3 7
2002-03-28 07:24:05 51°13.688 2°55.906 129.3   19.4 7
2002-03-28 07:25:05 51°13.688 2°55.906 129.3   351.9 6.6
2002-03-28 07:26:06 51°13.687 2°55.906 129.2   27.4 7
2002-03-28 07:27:05 51°13.688 2°55.907 129.2   8.6 7
2002-03-28 07:28:05 51°13.688 2°55.906 129.3   345.1 7
2002-03-28 07:29:05 51°13.688 2°55.907 129.3   24 7
2002-03-28 07:30:05 51°13.688 2°55.906 129.2   355.4 7.1
2002-03-28 07:31:06 51°13.687 2°55.906 129.3   38.6 6.7
2002-03-28 07:32:06 51°13.686 2°55.905 129.3   39.2 6.8
2002-03-28 07:33:05 51°13.689 2°55.907 129.2   92.9 7.1
2002-03-28 07:34:06 51°13.688 2°55.906 129.3   32.7 7.1
2002-03-28 07:35:06 51°13.689 2°55.905 129.3   285.4 7.2
2002-03-28 07:36:05 51°13.692 2°55.906 129.3   250.3 7.1
2002-03-28 07:37:06 51°13.689 2°55.905 129.3   33.9 7.1
2002-03-28 07:38:05 51°13.688 2°55.905 129.3   82 7.2
2002-03-28 07:39:05 51°13.687 2°55.904 129.3   343.8 7.2
2002-03-28 07:40:05 51°13.689 2°55.906 129.3   79.8 7.1
2002-03-28 07:41:05 51°13.688 2°55.905 129.3   304.5 7.1
2002-03-28 07:42:05 51°13.688 2°55.905 129.5   244 7.2
2002-03-28 07:43:06 51°13.687 2°55.905 126.8   99.6 7.2
2002-03-28 07:44:05 51°13.687 2°55.905 118.5 0.1 203.6 7.2
2002-03-28 07:45:05 51°13.686 2°55.904 110.2 0.1 195.5 7.2
2002-03-28 07:46:05 51°13.686 2°55.904 105.3 0.1 322.3 7
2002-03-28 07:47:06 51°13.696 2°55.843 98.5 3.6 281.6 -999
2002-03-28 07:48:06 51°13.7 2°55.758 80.8 3 268.3 -999
2002-03-28 07:49:05 51°13.706 2°55.721 37.8 2 26.3 10.9
2002-03-28 07:50:05 51°13.796 2°55.67 334.2 8.1 331.7 9.4
2002-03-28 07:51:05 51°13.931 2°55.564 338.7 9.5 335.4 9.1
2002-03-28 07:52:05 51°14.058 2°55.471 338 7.2 335.2 9
2002-03-28 07:53:05 51°14.163 2°55.384 334 8.1 331.2 9.3
2002-03-28 07:54:05 51°14.279 2°55.224 313.7 9.7 310.9 9.2
2002-03-28 07:55:05 51°14.38 2°55.011 306.5 10.4 301.9 9
2002-03-28 07:56:05 51°14.419 2°54.725 276.3 11.8 271.5 9.2
2002-03-28 07:57:05 51°14.377 2°54.415 250.2 12.2 247.4 8.6
2002-03-28 07:58:05 51°14.295 2°54.104 251 13 248 8.3
2002-03-28 07:59:05 51°14.21 2°53.774 251 13.8 248.2 8.3
2002-03-28 08:00:05 51°14.109 2°53.433 242.3 14.5 240.2 8.6
2002-03-28 08:01:05 51°13.991 2°53.094 243.7 14.7 241.3 9
2002-03-28 08:02:04 51°13.875 2°52.756 243.3 14.8 240.9 9.4
2002-03-28 08:03:05 51°13.754 2°52.404 244.2 14.9 241.6 9.6
2002-03-28 08:04:05 51°13.635 2°52.056 244.2 15 241.5 9.7
2002-03-28 08:05:05 51°13.516 2°51.707 243.5 15 241.3 9.7
2002-03-28 08:06:05 51°13.397 2°51.358 244.2 15 241.7 9.9
2002-03-28 08:07:05 51°13.278 2°51.007 243.3 15.1 241.4 10.2
2002-03-28 08:08:05 51°13.158 2°50.658 243.8 15 242 10.2
2002-03-28 08:09:05 51°13.039 2°50.308 243.5 15 241.5 10.4
2002-03-28 08:10:05 51°12.918 2°49.958 242.8 15 240.8 10.5
2002-03-28 08:11:05 51°12.796 2°49.61 243.2 15.1 240.8 10.7
2002-03-28 08:12:05 51°12.675 2°49.26 243.2 15.1 241 10.9
2002-03-28 08:13:05 51°12.552 2°48.911 243 15.1 241.1 11
2002-03-28 08:14:05 51°12.431 2°48.562 242.3 15 240.6 11.2
2002-03-28 08:15:05 51°12.306 2°48.218 240.7 15 238.8 11.3
2002-03-28 08:16:05 51°12.178 2°47.877 240.7 15 239.1 11.4
2002-03-28 08:17:05 51°12.051 2°47.537 240.7 15 238.9 11.3
2002-03-28 08:18:05 51°11.924 2°47.197 240.7 14.9 239.4 11.1
2002-03-28 08:19:05 51°11.797 2°46.857 241.3 14.9 239.4 11
2002-03-28 08:20:05 51°11.671 2°46.518 241.2 14.9 239.6 10.8
2002-03-28 08:21:05 51°11.544 2°46.18 240.5 14.8 238.9 10.5
2002-03-28 08:22:05 51°11.418 2°45.848 241.2 14.6 239.1 10.1
2002-03-28 08:23:04 51°11.296 2°45.523 241.2 14.5 238.7 9.8
2002-03-28 08:24:05 51°11.169 2°45.189 240.7 14.6 238.8 9.3
2002-03-28 08:25:05 51°11.044 2°44.858 241 14.6 239.2 9
2002-03-28 08:26:05 51°10.92 2°44.528 241 14.5 239 8.6
2002-03-28 08:27:05 51°10.799 2°44.2 243.8 14.3 241.4 8.3
2002-03-28 08:28:05 51°10.685 2°43.869 242.5 14.2 240.6 8.1
2002-03-28 08:29:05 51°10.569 2°43.544 242.7 14.1 240.7 8
2002-03-28 08:30:05 51°10.454 2°43.22 243.7 14 241.1 7.8
2002-03-28 08:31:05 51°10.339 2°42.899 242.5 13.9 240.3 7.9
2002-03-28 08:32:05 51°10.225 2°42.579 243.3 14 240.6 7.9
2002-03-28 08:33:05 51°10.122 2°42.25 248.5 13.9 245.8 7.8
2002-03-28 08:34:04 51°10.035 2°41.917 254.8 13.8 251.1 7.7
2002-03-28 08:35:05 51°9.978 2°41.556 262.5 13.8 258.6 7.8
2002-03-28 08:36:05 51°9.937 2°41.195 263.8 14 259.6 8.1
2002-03-28 08:37:05 51°9.902 2°40.827 265.3 14.1 261.5 8.5
2002-03-28 08:38:04 51°9.865 2°40.461 264.3 14.3 260.6 8.9
2002-03-28 08:39:05 51°9.826 2°40.078 264.8 14.5 260.5 9.3
2002-03-28 08:40:05 51°9.789 2°39.699 265.2 14.5 261.3 9.7
2002-03-28 08:41:05 51°9.751 2°39.32 264.7 14.6 261 10
2002-03-28 08:42:05 51°9.714 2°38.94 264.8 14.6 261.1 10.6
2002-03-28 08:43:06 51°9.676 2°38.553 265 14.6 261 11
2002-03-28 08:44:05 51°9.638 2°38.178 264.3 14.6 260.7 11.9
2002-03-28 08:45:05 51°9.6 2°37.796 264.7 14.7 260.7 13
2002-03-28 08:46:05 51°9.56 2°37.41 265 14.7 260.3 14.4
2002-03-28 08:47:05 51°9.522 2°37.025 265.2 14.8 260.8 15.5
2002-03-28 08:48:05 51°9.48 2°36.639 263.8 14.9 260.1 15.3
2002-03-28 08:49:05 51°9.436 2°36.251 263.8 14.9 259.8 16.1
2002-03-28 08:50:05 51°9.394 2°35.864 264.2 14.8 260.2 15.9
2002-03-28 08:51:05 51°9.351 2°35.479 263.7 14.8 260.1 15.9
2002-03-28 08:52:05 51°9.303 2°35.096 262.7 14.8 259.1 16.9
2002-03-28 08:53:05 51°9.255 2°34.713 262.7 14.7 258.8 17.4
2002-03-28 08:54:04 51°9.209 2°34.339 262.7 14.6 258.5 16.4
2002-03-28 08:55:05 51°9.161 2°33.952 262.8 14.6 259 18.2
2002-03-28 08:56:05 51°9.116 2°33.57 266 14.7 261.6 17.8
2002-03-28 08:57:05 51°9.207 2°33.26 338.8 12.8 328.2 16.2
2002-03-28 08:58:05 51°9.387 2°33.358 40.5 12.4 38.3 12.3
2002-03-28 08:59:05 51°9.561 2°33.551 39.3 12.9 35.8 10.5
2002-03-28 09:00:05 51°9.731 2°33.76 42.7 12.9 40.1 10.2
2002-03-28 09:01:05 51°9.886 2°33.994 44.3 12.8 42.4 10.2
2002-03-28 09:02:05 51°10.046 2°34.219 43.5 12.8 41.8 10.2
2002-03-28 09:03:05 51°10.206 2°34.443 45.2 12.8 42.7 9.4
2002-03-28 09:04:04 51°10.36 2°34.664 46 12.7 43.2 8.9
2002-03-28 09:05:05 51°10.52 2°34.893 44.8 12.7 41.7 8.9
2002-03-28 09:06:04 51°10.68 2°35.105 41.8 12.7 38.3 9
2002-03-28 09:07:05 51°10.848 2°35.319 42.5 12.7 38.9 9.2
2002-03-28 09:08:05 51°11.011 2°35.533 42.2 12.7 38.8 9.4
2002-03-28 09:09:05 51°11.175 2°35.745 39.7 12.7 37.8 9.6
2002-03-28 09:10:05 51°11.339 2°35.961 41.7 12.7 40 9.6
2002-03-28 09:11:05 51°11.502 2°36.175 41.8 12.7 40.1 9.9
2002-03-28 09:12:05 51°11.665 2°36.389 43.3 12.7 41 9.8
2002-03-28 09:13:05 51°11.829 2°36.601 43.3 12.7 40 10.1
2002-03-28 09:14:05 51°11.996 2°36.806 38.7 12.6 35.3 10.2
2002-03-28 09:15:05 51°12.166 2°37.005 38.5 12.7 36.1 10.6
2002-03-28 09:16:05 51°12.333 2°37.211 39.3 12.7 37.3 10.9
2002-03-28 09:17:05 51°12.5 2°37.416 41 12.6 38.3 11.9
2002-03-28 09:18:05 51°12.669 2°37.617 40 12.6 36.7 12.3
2002-03-28 09:19:05 51°12.835 2°37.821 37.5 12.6 36.4 13
2002-03-28 09:20:05 51°13.002 2°38.028 40.5 12.7 39.3 13.8
2002-03-28 09:21:05 51°13.169 2°38.235 40.5 12.7 37.3 14.2
2002-03-28 09:22:05 51°13.337 2°38.442 38.7 12.8 37.4 14.6
2002-03-28 09:23:05 51°13.505 2°38.651 41 12.8 39.3 15
2002-03-28 09:24:05 51°13.675 2°38.859 40.8 12.9 36.9 14.9
2002-03-28 09:25:05 51°13.845 2°39.065 31.2 12.7 30.8 14.7
2002-03-28 09:26:04 51°14.033 2°39.008 321.8 12.7 318.5 13.4
2002-03-28 09:27:05 51°14.117 2°38.688 279.2 13.6 274.9 14.1
2002-03-28 09:28:05 51°14.104 2°38.317 267.7 14.2 262.3 17.9
2002-03-28 09:29:05 51°14.055 2°37.942 261 14.5 255.6 18.9
2002-03-28 09:30:05 51°13.985 2°37.574 256.7 14.5 252.3 20.3
2002-03-28 09:31:05 51°13.915 2°37.206 257.8 14.4 253.1 20.7
2002-03-28 09:32:05 51°13.835 2°36.844 253.3 14.6 249.8 20.8
2002-03-28 09:33:05 51°13.744 2°36.489 251.2 14.4 247.9 20.3
2002-03-28 09:34:05 51°13.656 2°36.138 252.5 14.3 248.8 19
2002-03-28 09:35:05 51°13.562 2°35.794 250 14.2 246.4 16.8
2002-03-28 09:36:05 51°13.469 2°35.451 249.5 14 246.6 18
2002-03-28 09:37:05 51°13.365 2°35.118 246.3 14.1 243.5 17.1
2002-03-28 09:38:05 51°13.259 2°34.785 246.7 13.9 243.6 17.4
2002-03-28 09:39:05 51°13.155 2°34.459 246.7 13.8 243.1 17.2
2002-03-28 09:40:05 51°13.05 2°34.134 246.7 13.8 242.7 16.1
2002-03-28 09:41:05 51°12.946 2°33.81 247.2 13.7 243.2 15.2
2002-03-28 09:42:05 51°12.84 2°33.489 246.5 13.7 242.5 15.5
2002-03-28 09:43:05 51°12.734 2°33.167 246.7 13.8 242 16.7
2002-03-28 09:44:05 51°12.628 2°32.84 247 13.9 242.8 17.9
2002-03-28 09:45:05 51°12.522 2°32.513 246.7 13.9 242.6 19.2
2002-03-28 09:46:04 51°12.415 2°32.19 246.7 14 242.3 20.7
2002-03-28 09:47:05 51°12.307 2°31.855 246.8 14 242.9 22.6
2002-03-28 09:48:04 51°12.202 2°31.531 246.7 14 243.1 23.1
2002-03-28 09:49:05 51°12.094 2°31.195 247 14.1 242.9 23.3
2002-03-28 09:50:05 51°11.985 2°30.864 247.2 14 241.8 24.1
2002-03-28 09:51:05 51°11.877 2°30.539 247.2 13.9 242.1 24.1
2002-03-28 09:52:05 51°11.768 2°30.217 247 13.7 241.8 23.6
2002-03-28 09:53:05 51°11.662 2°29.895 249 13.6 244.2 24.1
2002-03-28 09:54:05 51°11.576 2°29.562 252.7 13.6 247.8 24.4
2002-03-28 09:55:05 51°11.494 2°29.229 255 13.3 250.2 25.7
2002-03-28 09:56:04 51°11.43 2°28.898 257.2 13.3 252.3 25
2002-03-28 09:57:05 51°11.375 2°28.56 260.3 12.6 257.2 23.1
2002-03-28 09:58:05 51°11.327 2°28.241 259.5 12.4 256.4 24.4
2002-03-28 09:59:05 51°11.291 2°27.918 264.7 12.3 261.9 23.7
2002-03-28 10:00:05 51°11.26 2°27.594 263.8 12.4 261.1 23.8
2002-03-28 10:01:05 51°11.236 2°27.268 268.3 12.4 265.8 23.8
2002-03-28 10:02:06 51°11.218 2°26.934 268 12.5 264.8 23.4
2002-03-28 10:03:05 51°11.204 2°26.611 272.3 12.4 268.7 21
2002-03-28 10:04:05 51°11.194 2°26.28 271 12.5 266.8 18.2
2002-03-28 10:05:05 51°11.188 2°25.949 274.7 12.5 270.1 16.1
2002-03-28 10:06:05 51°11.236 2°25.639 305.7 12.2 301.6 17.3
2002-03-28 10:07:05 51°11.414 2°25.473 349.8 13.1 347.6 21.4
2002-03-28 10:08:05 51°11.636 2°25.503 9 13.6 8.5 27
2002-03-28 10:09:05 51°11.858 2°25.48 350.3 13.4 350 26.3
2002-03-28 10:10:05 51°12.081 2°25.443 359.3 13.5 356.8 27.9
2002-03-28 10:11:05 51°12.306 2°25.441 3.5 13.6 2.1 27.8
2002-03-28 10:12:05 51°12.531 2°25.477 9.2 13.6 6.6 27.6
2002-03-28 10:13:05 51°12.745 2°25.589 35.3 13.7 31.9 28.2
2002-03-28 10:14:05 51°12.924 2°25.815 35.5 13.8 35.9 28.2
2002-03-28 10:15:05 51°13.119 2°26.007 35 13.8 33.2 28.8
2002-03-28 10:16:05 51°13.27 2°26.286 57.3 14.1 55.7 28.8
2002-03-28 10:17:06 51°13.4 2°26.606 58.7 14.1 57.4 28.7
2002-03-28 10:18:07 51°13.524 2°26.931 60.8 14.1 59.9 28.6
2002-03-28 10:19:06 51°13.656 2°27.232 54.8 14.1 52.8 28.4
2002-03-28 10:20:06 51°13.794 2°27.533 54.5 14.1 53.7 28.2
2002-03-28 10:21:07 51°13.932 2°27.84 55.7 14 54.5 28.5
2002-03-28 10:22:06 51°14.066 2°28.135 57.3 14 54.2 28.9
2002-03-28 10:23:06 51°14.205 2°28.433 54.7 14.1 52.8 29.1
2002-03-28 10:24:06 51°14.344 2°28.733 56 14.1 54.2 29.4
2002-03-28 10:25:06 51°14.483 2°29.036 57.8 14.1 55.2 29.6
2002-03-28 10:26:06 51°14.626 2°29.336 55 14.3 52.2 29.4
2002-03-28 10:27:06 51°14.768 2°29.641 55 14.3 53.3 28.8
2002-03-28 10:28:06 51°14.905 2°29.955 58.7 14.5 57 29
2002-03-28 10:29:07 51°15.045 2°30.276 59 14.5 55.8 28.4
2002-03-28 10:30:06 51°15.18 2°30.589 56.8 14.6 54 27.5
2002-03-28 10:31:06 51°15.318 2°30.908 57.7 14.6 56.5 24.1
2002-03-28 10:32:06 51°15.452 2°31.235 58.7 14.8 57.3 21.8
2002-03-28 10:33:07 51°15.592 2°31.565 57.5 14.7 55.4 22.8
2002-03-28 10:34:06 51°15.727 2°31.886 56.7 14.8 55.5 24.4
2002-03-28 10:35:06 51°15.863 2°32.215 58 14.9 57.3 21.8
2002-03-28 10:36:06 51°15.989 2°32.555 61.3 14.9 60.9 16.8
2002-03-28 10:37:06 51°16.099 2°32.91 68.8 15 68.5 12.7
2002-03-28 10:38:06 51°16.097 2°33.3 112.7 15 108.8 10.7
2002-03-28 10:39:06 51°15.996 2°33.669 117 15.2 113.1 12
2002-03-28 10:40:06 51°15.894 2°34.037 117.5 15.1 113.5 16.4
2002-03-28 10:41:06 51°15.798 2°34.402 117.5 14.7 112.4 26.7
2002-03-28 10:42:07 51°15.703 2°34.754 117.7 13.9 113.9 28.8
2002-03-28 10:43:06 51°15.681 2°35.085 66.7 12.9 65.5 29.5
2002-03-28 10:44:06 51°15.852 2°35.332 44.3 14.2 40.2 29.3
2002-03-28 10:45:07 51°16.022 2°35.605 49.5 14.3 46.6 29.2
2002-03-28 10:46:07 51°16.192 2°35.873 48.5 14.3 44.2 29.2
2002-03-28 10:47:07 51°16.364 2°36.137 47.3 14.4 43.8 30.3
2002-03-28 10:48:06 51°16.533 2°36.401 48.3 14.5 45.2 29.5
2002-03-28 10:49:07 51°16.709 2°36.676 48.8 14.5 44.5 29.1
2002-03-28 10:50:06 51°16.881 2°36.94 48 14.6 44 30.5
2002-03-28 10:51:06 51°17.053 2°37.211 47.5 14.5 44.8 29.9
2002-03-28 10:52:06 51°17.245 2°37.39 356.7 12.9 357.8 29.3
2002-03-28 10:53:06 51°17.377 2°37.144 303.7 13.2 303.4 29.9
2002-03-28 10:54:06 51°17.558 2°36.938 331 13.5 331.3 28
2002-03-28 10:55:06 51°17.73 2°36.724 313.2 13 314.8 22.3
2002-03-28 10:56:06 51°17.893 2°36.498 321.7 12.9 322.7 18.8
2002-03-28 10:57:06 51°18.065 2°36.295 321.3 12.8 323.4 16.6
2002-03-28 10:58:06 51°18.239 2°36.099 322.8 12.8 324.3 22.1
2002-03-28 10:59:06 51°18.414 2°35.895 321.8 13.1 324.4 27.8
2002-03-28 11:00:07 51°18.601 2°35.7 325.7 13.2 328.2 24.1
2002-03-28 11:01:07 51°18.786 2°35.51 323 13.2 326.7 21.9
2002-03-28 11:02:06 51°18.969 2°35.322 325.8 13.3 329 23.4
2002-03-28 11:03:06 51°19.158 2°35.451 58.3 14.2 56.1 24.8
2002-03-28 11:04:07 51°19.255 2°35.823 77 15.2 73.1 25.1
2002-03-28 11:05:07 51°19.367 2°36.181 56.5 15.2 54.6 24
2002-03-28 11:06:07 51°19.517 2°36.504 54.2 15.1 52.8 22.5
2002-03-28 11:07:06 51°19.676 2°36.808 50.3 15.1 48.9 23.7
2002-03-28 11:08:07 51°19.843 2°37.116 48.3 15.1 47.9 24.3
2002-03-28 11:09:07 51°20.013 2°37.41 48 15 47.7 23.5
2002-03-28 11:10:06 51°20.178 2°37.7 50 14.9 48.8 26
2002-03-28 11:11:07 51°20.347 2°37.999 49.5 14.9 47.9 26.5
2002-03-28 11:12:06 51°20.512 2°38.282 47.8 14.7 46.4 26.9
2002-03-28 11:13:07 51°20.681 2°38.574 50.3 14.8 48.3 27.5
2002-03-28 11:14:06 51°20.847 2°38.856 47.8 14.8 46.1 27.9
2002-03-28 11:15:07 51°21.019 2°39.146 48.7 14.8 46.4 27.2
2002-03-28 11:16:07 51°21.069 2°39.473 121.2 13.1 112.1 28.8
2002-03-28 11:17:06 51°20.995 2°39.821 107.2 14.5 101.4 27.9
2002-03-28 11:18:07 51°20.942 2°40.203 110.7 14.4 105.1 28.6
2002-03-28 11:19:06 51°20.88 2°40.567 111.2 14.4 105 29.2
2002-03-28 11:20:06 51°20.819 2°40.941 110 14.7 104 29.2
2002-03-28 11:21:07 51°20.765 2°41.326 110.3 14.5 102.1 29.8
2002-03-28 11:22:07 51°20.712 2°41.703 110.3 14.7 102.9 25.9
2002-03-28 11:23:06 51°20.657 2°42.078 109.5 14.7 102.4 20.9
2002-03-28 11:24:07 51°20.601 2°42.465 110.5 14.7 103.4 20.8
2002-03-28 11:25:07 51°20.551 2°42.839 110 14.2 101.6 22.2
2002-03-28 11:26:07 51°20.505 2°43.206 111 14 102.2 28.1
2002-03-28 11:27:06 51°20.457 2°43.565 110.7 14.1 101.6 29.8
2002-03-28 11:28:06 51°20.408 2°43.934 110.7 14.2 102 30.2
2002-03-28 11:29:07 51°20.358 2°44.308 111.2 14.2 101.5 29.5
2002-03-28 11:30:07 51°20.309 2°44.677 110.7 14.3 101.5 28.3
2002-03-28 11:31:06 51°20.262 2°45.044 110.7 14.4 101.5 27
2002-03-28 11:32:06 51°20.214 2°45.419 110.8 14.4 102 25.5
2002-03-28 11:33:07 51°20.16 2°45.802 112.8 14.7 104 19.1
2002-03-28 11:34:06 51°20.098 2°46.176 112.2 14.8 104.8 17.7
2002-03-28 11:35:06 51°20.031 2°46.555 113.2 14.8 105.8 19.5
2002-03-28 11:36:06 51°19.939 2°46.9 141.8 13.1 132.4 21.4
2002-03-28 11:37:07 51°19.763 2°46.859 211 11.5 207.1 23.4
2002-03-28 11:38:06 51°19.592 2°46.713 213.8 11.9 210.8 24
2002-03-28 11:39:06 51°19.415 2°46.563 210.8 12 206.7 23.9
2002-03-28 11:40:06 51°19.237 2°46.421 210.8 12 206 24.1
2002-03-28 11:41:07 51°19.055 2°46.278 211.3 12 206.1 24.2
2002-03-28 11:42:06 51°18.878 2°46.141 210.3 12.1 205.2 24.4
2002-03-28 11:43:06 51°18.699 2°45.992 213.3 12.1 207.8 24.1
2002-03-28 11:44:07 51°18.517 2°45.839 213 12.2 207.6 23.7
2002-03-28 11:45:07 51°18.334 2°45.692 213.2 12.4 206.5 22.9
2002-03-28 11:46:06 51°18.157 2°45.538 214.8 12.2 208.4 22.3
2002-03-28 11:47:06 51°17.98 2°45.38 214.8 12.3 208.9 21.5
2002-03-28 11:48:07 51°17.799 2°45.219 213.5 12.1 208.6 20.3
2002-03-28 11:49:07 51°17.617 2°45.071 212.2 12.3 206.8 20.4
2002-03-28 11:50:07 51°17.436 2°44.919 212.5 12.2 207 19.2
2002-03-28 11:51:07 51°17.254 2°44.769 212.5 12.4 207.1 19.4
2002-03-28 11:52:07 51°17.061 2°44.648 207.3 12.5 200.6 18.6
2002-03-28 11:53:07 51°16.867 2°44.526 207.8 12.5 201.4 17.7
2002-03-28 11:54:06 51°16.677 2°44.404 207.7 12.5 201.9 17.3
2002-03-28 11:55:07 51°16.484 2°44.265 210.8 12.4 205.4 16.2
2002-03-28 11:56:07 51°16.304 2°44.107 215 12.3 210 15.6
2002-03-28 11:57:07 51°16.124 2°43.95 213.8 12.4 208.7 15
2002-03-28 11:58:07 51°15.942 2°43.792 213.7 12.5 208.6 14.8
2002-03-28 11:59:07 51°15.76 2°43.635 213.7 12.4 207.8 14.9
2002-03-28 12:00:06 51°15.58 2°43.484 214.2 12.5 208.4 15.4
2002-03-28 12:01:07 51°15.393 2°43.326 214.3 12.5 207.9 16.5
2002-03-28 12:02:07 51°15.209 2°43.174 213.8 12.4 207.4 16.7
2002-03-28 12:03:07 51°15.026 2°43.022 213.8 12.4 207.2 16.8
2002-03-28 12:04:07 51°14.843 2°42.874 213.8 12.3 207.2 18.1
2002-03-28 12:05:07 51°14.66 2°42.723 214.7 12.4 207.7 20
2002-03-28 12:06:07 51°14.476 2°42.572 213.5 12.5 206.8 20.7
2002-03-28 12:07:06 51°14.295 2°42.425 213.7 12.4 206.9 20.1
2002-03-28 12:08:06 51°14.106 2°42.304 191.8 12.3 184 19.8
2002-03-28 12:09:07 51°13.963 2°42.535 110.3 13.7 104.9 18.6
2002-03-28 12:10:07 51°14.062 2°42.867 54.7 14.9 51.7 18.7
2002-03-28 12:11:07 51°14.198 2°43.203 61.3 15.1 58.3 18.9
2002-03-28 12:12:06 51°14.335 2°43.532 60.3 15.2 57.1 19
2002-03-28 12:13:07 51°14.474 2°43.876 61.3 15.2 57.7 19
2002-03-28 12:14:07 51°14.592 2°44.233 65 15.3 61.7 18.6
2002-03-28 12:15:07 51°14.713 2°44.588 64.5 15.3 61.7 18.1
2002-03-28 12:16:06 51°14.832 2°44.94 65.5 15.3 62.3 18.1
2002-03-28 12:17:07 51°14.954 2°45.301 65.5 15.2 62.7 17.7
2002-03-28 12:18:07 51°15.074 2°45.657 65.3 15.2 62.2 17.5
2002-03-28 12:19:06 51°15.166 2°46.017 87.2 14.8 82 17
2002-03-28 12:20:06 51°15.077 2°46.347 148.7 13.4 140.6 14.5
2002-03-28 12:21:07 51°14.894 2°46.29 221.3 11.7 217.6 12.8
2002-03-28 12:22:07 51°14.7 2°46.19 199.7 12.6 195.2 12.1
2002-03-28 12:23:07 51°14.506 2°46.059 208.8 12.7 204.8 14.6
2002-03-28 12:24:07 51°14.314 2°45.921 208 12.6 203.7 16
2002-03-28 12:25:07 51°14.12 2°45.791 206.7 12.5 201.9 15.3
2002-03-28 12:26:07 51°13.926 2°45.668 205.8 12.6 201.4 13.5
2002-03-28 12:27:07 51°13.733 2°45.544 206.2 12.5 202.8 11.7
2002-03-28 12:28:07 51°13.537 2°45.418 204.8 12.8 201 12.6
2002-03-28 12:29:07 51°13.341 2°45.297 206.2 12.4 200.7 14.9
2002-03-28 12:30:06 51°13.151 2°45.184 205.8 12.4 200.3 15.1
2002-03-28 12:31:07 51°12.954 2°45.069 203.3 12.5 197.5 14.7
2002-03-28 12:32:07 51°12.753 2°44.98 200.3 12.6 195 13.5
2002-03-28 12:33:07 51°12.568 2°45.095 136.8 13.1 129.2 11.6
2002-03-28 12:34:06 51°12.574 2°45.433 66 14 63.2 11.8
2002-03-28 12:35:07 51°12.703 2°45.768 61.8 14.7 58.6 12.5
2002-03-28 12:36:07 51°12.823 2°46.104 64.7 14.5 61.3 13.2
2002-03-28 12:37:07 51°12.941 2°46.441 65.7 14.5 61.9 12.9
2002-03-28 12:38:07 51°13.052 2°46.782 66.7 14.5 63.3 13
2002-03-28 12:39:07 51°13.164 2°47.124 66 14.5 62.5 12.4
2002-03-28 12:40:07 51°13.276 2°47.466 66.2 14.6 62.7 12.8
2002-03-28 12:41:07 51°13.388 2°47.808 67 14.5 63.1 12.8
2002-03-28 12:42:07 51°13.492 2°48.155 68.5 14.5 64.4 12.4
2002-03-28 12:43:07 51°13.597 2°48.5 67.3 14.5 63.5 12.8
2002-03-28 12:44:07 51°13.703 2°48.845 66.3 14.5 62.2 12.3
2002-03-28 12:45:06 51°13.81 2°49.181 66.7 14.6 62.9 12.3
2002-03-28 12:46:07 51°13.912 2°49.536 69.5 14.5 65.1 12
2002-03-28 12:47:07 51°14.013 2°49.884 69.3 14.5 65 11.9
2002-03-28 12:48:07 51°14.115 2°50.231 68.7 14.5 64.7 12
2002-03-28 12:49:07 51°14.216 2°50.579 68.8 14.5 64.9 12.2
2002-03-28 12:50:07 51°14.317 2°50.927 68.8 14.5 64.7 12.3
2002-03-28 12:51:07 51°14.419 2°51.276 69 14.5 65.5 12.5
2002-03-28 12:52:07 51°14.52 2°51.624 69 14.5 65.6 12.6
2002-03-28 12:53:07 51°14.601 2°51.985 74.8 14.5 71.2 12.7
2002-03-28 12:54:07 51°14.666 2°52.352 80.3 14.4 76.6 12.8
2002-03-28 12:55:07 51°14.706 2°52.724 88.3 14.2 84.6 12.7
2002-03-28 12:56:07 51°14.708 2°53.103 99.5 14.3 94.4 12.5
2002-03-28 12:57:07 51°14.652 2°53.466 111.5 14.1 105.5 12.3
2002-03-28 12:58:07 51°14.616 2°53.838 95.5 14.5 89.4 13.4
2002-03-28 12:59:07 51°14.651 2°54.22 75.8 14.7 71.9 13.5
2002-03-28 13:00:07 51°14.736 2°54.522 78 10.1 71.2 12.9
2002-03-28 13:01:07 51°14.75 2°54.738 89 7.3 82.4 12.6
2002-03-28 13:02:07 51°14.734 2°54.879 145.7 4.3 125.3 12.5
2002-03-28 13:03:07 51°14.696 2°54.921 188 2.1 158.6 12.6
2002-03-28 13:04:07 51°14.693 2°54.942 207.2 0.8 67.9 12.6
2002-03-28 13:05:06 51°14.695 2°54.96 210.5 0.6 87.8 12.6
2002-03-28 13:06:07 51°14.69 2°54.971 206.2 0.7 160.3 12.6
2002-03-28 13:07:07 51°14.633 2°54.961 197.2 5.2 186.4 12.6
2002-03-28 13:08:06 51°14.527 2°54.962 182.2 7.3 172.9 12.6
2002-03-28 13:09:07 51°14.41 2°55.02 160.3 6.5 154.9 13.1
2002-03-28 13:10:07 51°14.337 2°55.12 133.7 5.7 133.2 13
2002-03-28 13:11:07 51°14.274 2°55.236 132.5 5.8 130.8 13.2
2002-03-28 13:12:06 51°14.205 2°55.34 143.7 5.7 140.6 13.2
2002-03-28 13:13:06 51°14.12 2°55.416 158.7 5.8 156.4 13
2002-03-28 13:14:07 51°14.019 2°55.487 157.8 7.1 155.8 12.7
2002-03-28 13:15:06 51°13.901 2°55.577 156.7 9 154.5 12.9
2002-03-28 13:16:06 51°13.75 2°55.708 142.8 10.4 142.8 13.1